This is the latest recevied weather packets stored in our database for station/object JE7UPL-13. If no packets are shown the sender has not sent any weather packets the latest 1 day(s).
| Time | Temp. | Humidity | Pressure | Rain* | Wind** | Luminosity | Snow |
|---|---|---|---|---|---|---|---|
| 1778099405 | 12.22° C | 76% | 1009.5 hPa | 0 mm | - | - | - |
| 1778098505 | 10.56° C | 79% | 1009.7 hPa | 0 mm | - | - | - |
| 1778097605 | 10.56° C | 79% | 1009.7 hPa | 0 mm | - | - | - |
| 1778093105 | 10.56° C | 75% | 1010.5 hPa | 0 mm | - | - | - |
| 1778090406 | 11.11° C | 73% | 1010.6 hPa | 0 mm | - | - | - |
| 1778085006 | 12.22° C | 64% | 1011.3 hPa | 0 mm | - | - | - |
| 1778083205 | 12.22° C | 63% | 1011.1 hPa | 0 mm | - | - | - |
| 1778081405 | 13.33° C | 59% | 1011.2 hPa | 0 mm | - | - | - |
| 1778077805 | 15° C | 48% | 1011.5 hPa | 0 mm | - | - | - |
| 1778076005 | 16.67° C | 41% | 1010.9 hPa | 0 mm | - | - | - |
| 1778075105 | 17.22° C | 39% | 1011.1 hPa | 0 mm | - | - | - |
| 1778069705 | 17.78° C | 40% | 1011.4 hPa | 0 mm | - | - | - |
| 1778067005 | 18.33° C | 39% | 1011.4 hPa | 0 mm | - | - | - |
| 1778063405 | 18.89° C | 38% | 1011.3 hPa | 0 mm | - | - | - |
| 1778062505 | 18.89° C | 36% | 1011.4 hPa | 0 mm | - | - | - |
| 1778059805 | 20.56° C | 32% | 1011.7 hPa | 0 mm | - | - | - |
| 1778058905 | 21.67° C | 30% | 1011.8 hPa | 0 mm | - | - | - |
| 1778052605 | 23.89° C | 28% | 1011.2 hPa | 0 mm | - | - | - |
| 1778046305 | 23.89° C | 23% | 1011.5 hPa | 0 mm | - | - | - |
| 1778045405 | 25° C | 22% | 1011.5 hPa | 0 mm | - | - | - |
| 1778044505 | 25° C | 23% | 1011.4 hPa | 0 mm | - | - | - |
| 1778042705 | 23.89° C | 25% | 1011.5 hPa | 0 mm | - | - | - |
| 1778041805 | 23.89° C | 26% | 1011.7 hPa | 0 mm | - | - | - |
| 1778040905 | 23.89° C | 27% | 1011.9 hPa | 0 mm | - | - | - |
| 1778037305 | 23.89° C | 27% | 1012.9 hPa | 0 mm | - | - | - |
* Rain latest hour (hover to see other rain measurements)
** Current wind speed in m/s (hover to see current wind gust speed)